sensor_id;sensor_type;location;lat;lon;timestamp;temperature;humidity
19906;DHT22;10115;50.906;4.438;2023-08-06T00:00:26;14.90;99.90
19906;DHT22;10115;50.906;4.438;2023-08-06T00:02:52;14.90;99.90
19906;DHT22;10115;50.906;4.438;2023-08-06T00:05:18;14.90;99.90
19906;DHT22;10115;50.906;4.438;2023-08-06T00:07:48;14.90;99.90
19906;DHT22;10115;50.906;4.438;2023-08-06T00:10:14;15.00;99.90
19906;DHT22;10115;50.906;4.438;2023-08-06T00:12:40;14.90;99.90
19906;DHT22;10115;50.906;4.438;2023-08-06T00:15:06;14.90;99.90
19906;DHT22;10115;50.906;4.438;2023-08-06T00:17:33;14.90;99.90
19906;DHT22;10115;50.906;4.438;2023-08-06T00:19:59;15.00;99.90
19906;DHT22;10115;50.906;4.438;2023-08-06T00:22:30;15.00;99.90
19906;DHT22;10115;50.906;4.438;2023-08-06T00:24:57;15.00;99.90
19906;DHT22;10115;50.906;4.438;2023-08-06T00:27:23;14.90;99.90
19906;DHT22;10115;50.906;4.438;2023-08-06T00:29:48;15.00;99.90
19906;DHT22;10115;50.906;4.438;2023-08-06T00:32:14;15.00;99.90
19906;DHT22;10115;50.906;4.438;2023-08-06T00:34:39;14.90;99.90
19906;DHT22;10115;50.906;4.438;2023-08-06T00:37:05;15.00;99.90
19906;DHT22;10115;50.906;4.438;2023-08-06T00:39:31;14.90;99.90
19906;DHT22;10115;50.906;4.438;2023-08-06T00:41:58;14.90;99.90
19906;DHT22;10115;50.906;4.438;2023-08-06T00:44:23;14.80;99.90
19906;DHT22;10115;50.906;4.438;2023-08-06T00:46:49;14.90;99.90
19906;DHT22;10115;50.906;4.438;2023-08-06T00:49:15;14.90;99.90
19906;DHT22;10115;50.906;4.438;2023-08-06T00:51:42;14.90;99.90
19906;DHT22;10115;50.906;4.438;2023-08-06T00:54:09;15.00;99.90
19906;DHT22;10115;50.906;4.438;2023-08-06T00:56:35;15.00;99.90
19906;DHT22;10115;50.906;4.438;2023-08-06T00:59:02;14.90;99.90
19906;DHT22;10115;50.906;4.438;2023-08-06T01:01:28;14.90;99.90
19906;DHT22;10115;50.906;4.438;2023-08-06T01:03:54;14.90;99.90
19906;DHT22;10115;50.906;4.438;2023-08-06T01:06:30;14.90;99.90
19906;DHT22;10115;50.906;4.438;2023-08-06T01:15:07;14.90;99.90
19906;DHT22;10115;50.906;4.438;2023-08-06T01:17:34;14.90;99.90
19906;DHT22;10115;50.906;4.438;2023-08-06T01:20:00;14.90;99.90
19906;DHT22;10115;50.906;4.438;2023-08-06T01:22:26;14.90;99.90
19906;DHT22;10115;50.906;4.438;2023-08-06T01:24:52;14.90;99.90
19906;DHT22;10115;50.906;4.438;2023-08-06T01:27:28;14.90;99.90
19906;DHT22;10115;50.906;4.438;2023-08-06T01:32:34;14.90;99.90
19906;DHT22;10115;50.906;4.438;2023-08-06T01:35:00;14.90;99.90
19906;DHT22;10115;50.906;4.438;2023-08-06T01:37:28;14.90;99.90
19906;DHT22;10115;50.906;4.438;2023-08-06T01:39:54;14.90;99.90
19906;DHT22;10115;50.906;4.438;2023-08-06T01:42:19;14.90;99.90
19906;DHT22;10115;50.906;4.438;2023-08-06T01:44:45;14.80;99.90
19906;DHT22;10115;50.906;4.438;2023-08-06T01:47:10;14.80;99.90
19906;DHT22;10115;50.906;4.438;2023-08-06T01:49:36;14.80;99.90
19906;DHT22;10115;50.906;4.438;2023-08-06T01:52:02;14.80;99.90
19906;DHT22;10115;50.906;4.438;2023-08-06T01:54:28;14.90;99.90
19906;DHT22;10115;50.906;4.438;2023-08-06T01:56:54;14.90;99.90
19906;DHT22;10115;50.906;4.438;2023-08-06T01:59:20;14.90;99.90
19906;DHT22;10115;50.906;4.438;2023-08-06T02:01:45;14.90;99.90
19906;DHT22;10115;50.906;4.438;2023-08-06T02:04:11;14.90;99.90
19906;DHT22;10115;50.906;4.438;2023-08-06T02:06:37;14.90;99.90
19906;DHT22;10115;50.906;4.438;2023-08-06T02:09:02;14.90;99.90
19906;DHT22;10115;50.906;4.438;2023-08-06T02:11:28;14.80;99.90
19906;DHT22;10115;50.906;4.438;2023-08-06T02:13:54;14.80;99.90
19906;DHT22;10115;50.906;4.438;2023-08-06T02:16:20;14.80;99.90
19906;DHT22;10115;50.906;4.438;2023-08-06T02:18:45;14.80;99.90
19906;DHT22;10115;50.906;4.438;2023-08-06T02:21:11;14.80;99.90
19906;DHT22;10115;50.906;4.438;2023-08-06T02:23:36;14.80;99.90
19906;DHT22;10115;50.906;4.438;2023-08-06T02:26:03;14.70;99.90
19906;DHT22;10115;50.906;4.438;2023-08-06T02:28:30;14.70;99.90
19906;DHT22;10115;50.906;4.438;2023-08-06T02:30:56;14.70;99.90
19906;DHT22;10115;50.906;4.438;2023-08-06T02:33:22;14.60;99.90
19906;DHT22;10115;50.906;4.438;2023-08-06T02:35:48;14.60;99.90
19906;DHT22;10115;50.906;4.438;2023-08-06T02:38:14;14.50;99.90
19906;DHT22;10115;50.906;4.438;2023-08-06T02:40:44;14.50;99.90
19906;DHT22;10115;50.906;4.438;2023-08-06T02:43:10;14.50;99.90
19906;DHT22;10115;50.906;4.438;2023-08-06T02:45:36;14.50;99.90
19906;DHT22;10115;50.906;4.438;2023-08-06T02:48:02;14.60;99.90
19906;DHT22;10115;50.906;4.438;2023-08-06T02:50:28;14.50;99.90
19906;DHT22;10115;50.906;4.438;2023-08-06T02:52:53;14.50;99.90
19906;DHT22;10115;50.906;4.438;2023-08-06T02:55:19;14.50;99.90
19906;DHT22;10115;50.906;4.438;2023-08-06T02:57:45;14.50;99.90
19906;DHT22;10115;50.906;4.438;2023-08-06T03:00:10;14.50;99.90
19906;DHT22;10115;50.906;4.438;2023-08-06T03:02:37;14.50;99.90
19906;DHT22;10115;50.906;4.438;2023-08-06T03:05:03;14.50;99.90
19906;DHT22;10115;50.906;4.438;2023-08-06T03:07:29;14.60;99.90
19906;DHT22;10115;50.906;4.438;2023-08-06T03:09:55;14.60;99.90
19906;DHT22;10115;50.906;4.438;2023-08-06T03:12:20;14.60;99.90
19906;DHT22;10115;50.906;4.438;2023-08-06T03:14:46;14.60;99.90
19906;DHT22;10115;50.906;4.438;2023-08-06T03:17:12;14.70;99.90
19906;DHT22;10115;50.906;4.438;2023-08-06T03:19:37;14.70;99.90
19906;DHT22;10115;50.906;4.438;2023-08-06T03:22:03;14.60;99.90
19906;DHT22;10115;50.906;4.438;2023-08-06T03:24:29;14.70;99.90
19906;DHT22;10115;50.906;4.438;2023-08-06T03:26:54;14.70;99.90
19906;DHT22;10115;50.906;4.438;2023-08-06T03:29:20;14.70;99.90
19906;DHT22;10115;50.906;4.438;2023-08-06T03:31:47;14.70;99.90
19906;DHT22;10115;50.906;4.438;2023-08-06T03:34:12;14.70;99.90
19906;DHT22;10115;50.906;4.438;2023-08-06T03:36:38;14.70;99.90
19906;DHT22;10115;50.906;4.438;2023-08-06T03:39:03;14.80;99.90
19906;DHT22;10115;50.906;4.438;2023-08-06T03:41:30;14.80;99.90
19906;DHT22;10115;50.906;4.438;2023-08-06T03:43:55;14.80;99.90
19906;DHT22;10115;50.906;4.438;2023-08-06T03:46:21;14.90;99.90
19906;DHT22;10115;50.906;4.438;2023-08-06T03:48:47;14.80;99.90
19906;DHT22;10115;50.906;4.438;2023-08-06T03:51:12;15.00;99.90
19906;DHT22;10115;50.906;4.438;2023-08-06T03:53:38;15.00;99.90
19906;DHT22;10115;50.906;4.438;2023-08-06T03:56:04;14.90;99.90
19906;DHT22;10115;50.906;4.438;2023-08-06T03:58:29;15.00;99.90
19906;DHT22;10115;50.906;4.438;2023-08-06T04:01:02;15.00;99.90
19906;DHT22;10115;50.906;4.438;2023-08-06T04:03:28;15.00;99.90
19906;DHT22;10115;50.906;4.438;2023-08-06T04:05:54;14.90;99.90
19906;DHT22;10115;50.906;4.438;2023-08-06T04:08:20;14.90;99.90
19906;DHT22;10115;50.906;4.438;2023-08-06T04:10:49;14.90;99.90
19906;DHT22;10115;50.906;4.438;2023-08-06T04:13:15;14.90;99.90
19906;DHT22;10115;50.906;4.438;2023-08-06T04:15:40;14.90;99.90
19906;DHT22;10115;50.906;4.438;2023-08-06T04:18:06;14.90;99.90
19906;DHT22;10115;50.906;4.438;2023-08-06T04:20:31;14.90;99.90
19906;DHT22;10115;50.906;4.438;2023-08-06T04:22:57;14.70;99.90
19906;DHT22;10115;50.906;4.438;2023-08-06T04:25:23;14.70;99.90
19906;DHT22;10115;50.906;4.438;2023-08-06T04:27:49;14.60;99.90
19906;DHT22;10115;50.906;4.438;2023-08-06T04:30:15;14.70;99.90
19906;DHT22;10115;50.906;4.438;2023-08-06T04:32:40;14.70;99.90
19906;DHT22;10115;50.906;4.438;2023-08-06T04:35:07;14.60;99.90
19906;DHT22;10115;50.906;4.438;2023-08-06T04:37:32;14.50;99.90
19906;DHT22;10115;50.906;4.438;2023-08-06T04:39:58;14.20;99.90
19906;DHT22;10115;50.906;4.438;2023-08-06T04:42:24;14.20;99.90
19906;DHT22;10115;50.906;4.438;2023-08-06T04:44:50;14.10;99.90
19906;DHT22;10115;50.906;4.438;2023-08-06T04:47:15;14.10;99.90
19906;DHT22;10115;50.906;4.438;2023-08-06T04:49:41;14.00;99.90
19906;DHT22;10115;50.906;4.438;2023-08-06T04:52:07;13.80;99.90
19906;DHT22;10115;50.906;4.438;2023-08-06T04:54:32;13.80;99.90
19906;DHT22;10115;50.906;4.438;2023-08-06T04:56:58;13.80;99.90
19906;DHT22;10115;50.906;4.438;2023-08-06T04:59:24;13.80;99.90
19906;DHT22;10115;50.906;4.438;2023-08-06T05:01:49;13.80;99.90
19906;DHT22;10115;50.906;4.438;2023-08-06T05:04:15;13.80;99.90
19906;DHT22;10115;50.906;4.438;2023-08-06T05:06:40;13.80;99.90
19906;DHT22;10115;50.906;4.438;2023-08-06T05:09:06;13.70;99.90
19906;DHT22;10115;50.906;4.438;2023-08-06T05:11:32;13.70;99.90
19906;DHT22;10115;50.906;4.438;2023-08-06T05:13:58;13.70;99.90
19906;DHT22;10115;50.906;4.438;2023-08-06T05:16:24;13.70;99.90
19906;DHT22;10115;50.906;4.438;2023-08-06T05:18:49;13.70;99.90
19906;DHT22;10115;50.906;4.438;2023-08-06T05:21:15;13.80;99.90
19906;DHT22;10115;50.906;4.438;2023-08-06T05:23:42;13.80;99.90
19906;DHT22;10115;50.906;4.438;2023-08-06T05:26:08;13.80;99.90
19906;DHT22;10115;50.906;4.438;2023-08-06T05:28:34;13.80;99.90
19906;DHT22;10115;50.906;4.438;2023-08-06T05:31:04;13.90;99.90
19906;DHT22;10115;50.906;4.438;2023-08-06T05:33:30;13.90;99.90
19906;DHT22;10115;50.906;4.438;2023-08-06T05:35:56;13.80;99.90
19906;DHT22;10115;50.906;4.438;2023-08-06T05:38:21;13.90;99.90
19906;DHT22;10115;50.906;4.438;2023-08-06T05:40:47;13.90;99.90
19906;DHT22;10115;50.906;4.438;2023-08-06T05:43:13;13.90;99.90
19906;DHT22;10115;50.906;4.438;2023-08-06T05:45:39;14.00;99.90
19906;DHT22;10115;50.906;4.438;2023-08-06T05:48:04;14.00;99.90
19906;DHT22;10115;50.906;4.438;2023-08-06T05:50:30;14.00;99.90
19906;DHT22;10115;50.906;4.438;2023-08-06T05:52:56;14.00;99.90
19906;DHT22;10115;50.906;4.438;2023-08-06T05:55:22;13.90;99.90
19906;DHT22;10115;50.906;4.438;2023-08-06T05:57:47;13.90;99.90
19906;DHT22;10115;50.906;4.438;2023-08-06T06:00:13;14.00;99.90
19906;DHT22;10115;50.906;4.438;2023-08-06T06:02:39;14.00;99.90
19906;DHT22;10115;50.906;4.438;2023-08-06T06:05:04;13.90;99.90
19906;DHT22;10115;50.906;4.438;2023-08-06T06:07:30;13.90;99.90
19906;DHT22;10115;50.906;4.438;2023-08-06T06:09:56;13.90;99.90
19906;DHT22;10115;50.906;4.438;2023-08-06T06:12:21;13.90;99.90
19906;DHT22;10115;50.906;4.438;2023-08-06T06:14:47;13.90;99.90
19906;DHT22;10115;50.906;4.438;2023-08-06T06:17:13;13.90;99.90
19906;DHT22;10115;50.906;4.438;2023-08-06T06:19:39;13.90;99.90
19906;DHT22;10115;50.906;4.438;2023-08-06T06:22:05;13.90;99.90
19906;DHT22;10115;50.906;4.438;2023-08-06T06:24:31;13.90;99.90
19906;DHT22;10115;50.906;4.438;2023-08-06T06:26:56;13.90;99.90
19906;DHT22;10115;50.906;4.438;2023-08-06T06:29:22;13.90;99.90
19906;DHT22;10115;50.906;4.438;2023-08-06T06:31:47;13.80;99.90
19906;DHT22;10115;50.906;4.438;2023-08-06T06:34:13;13.90;99.90
19906;DHT22;10115;50.906;4.438;2023-08-06T06:36:39;13.90;99.90
19906;DHT22;10115;50.906;4.438;2023-08-06T06:39:05;13.90;99.90
19906;DHT22;10115;50.906;4.438;2023-08-06T06:41:30;13.90;99.90
19906;DHT22;10115;50.906;4.438;2023-08-06T06:43:58;13.90;99.90
19906;DHT22;10115;50.906;4.438;2023-08-06T06:46:24;13.90;99.90
19906;DHT22;10115;50.906;4.438;2023-08-06T06:48:49;13.90;99.90
19906;DHT22;10115;50.906;4.438;2023-08-06T06:51:15;13.90;99.90
19906;DHT22;10115;50.906;4.438;2023-08-06T06:53:41;14.00;99.90
19906;DHT22;10115;50.906;4.438;2023-08-06T06:56:06;14.00;99.90
19906;DHT22;10115;50.906;4.438;2023-08-06T06:58:32;14.00;99.90
19906;DHT22;10115;50.906;4.438;2023-08-06T07:00:58;14.10;99.90
19906;DHT22;10115;50.906;4.438;2023-08-06T07:03:24;14.00;99.90
19906;DHT22;10115;50.906;4.438;2023-08-06T07:05:50;14.00;99.90
19906;DHT22;10115;50.906;4.438;2023-08-06T07:08:16;14.00;99.90
19906;DHT22;10115;50.906;4.438;2023-08-06T07:10:42;14.00;99.90
19906;DHT22;10115;50.906;4.438;2023-08-06T07:13:08;14.00;99.90
19906;DHT22;10115;50.906;4.438;2023-08-06T07:15:34;13.90;99.90
19906;DHT22;10115;50.906;4.438;2023-08-06T07:18:01;13.90;99.90
19906;DHT22;10115;50.906;4.438;2023-08-06T07:20:26;13.80;99.90
19906;DHT22;10115;50.906;4.438;2023-08-06T07:22:54;13.90;99.90
19906;DHT22;10115;50.906;4.438;2023-08-06T07:25:20;13.90;99.90
19906;DHT22;10115;50.906;4.438;2023-08-06T07:27:46;14.00;99.90
19906;DHT22;10115;50.906;4.438;2023-08-06T07:30:11;14.00;99.90
19906;DHT22;10115;50.906;4.438;2023-08-06T07:32:37;14.00;99.90
19906;DHT22;10115;50.906;4.438;2023-08-06T07:35:03;14.00;99.90
19906;DHT22;10115;50.906;4.438;2023-08-06T07:37:29;14.00;99.90
19906;DHT22;10115;50.906;4.438;2023-08-06T07:39:55;14.00;99.90
19906;DHT22;10115;50.906;4.438;2023-08-06T07:42:22;13.90;99.90
19906;DHT22;10115;50.906;4.438;2023-08-06T07:44:54;14.00;99.90
19906;DHT22;10115;50.906;4.438;2023-08-06T07:47:21;14.10;99.90
19906;DHT22;10115;50.906;4.438;2023-08-06T07:49:46;14.20;99.90
19906;DHT22;10115;50.906;4.438;2023-08-06T07:52:12;14.30;99.90
19906;DHT22;10115;50.906;4.438;2023-08-06T07:54:38;14.30;99.90
19906;DHT22;10115;50.906;4.438;2023-08-06T07:57:04;14.40;99.90
19906;DHT22;10115;50.906;4.438;2023-08-06T07:59:29;14.40;99.90
19906;DHT22;10115;50.906;4.438;2023-08-06T08:01:56;14.40;99.90
19906;DHT22;10115;50.906;4.438;2023-08-06T08:04:21;14.40;99.90
19906;DHT22;10115;50.906;4.438;2023-08-06T08:06:47;14.50;99.90
19906;DHT22;10115;50.906;4.438;2023-08-06T08:09:13;14.60;99.90
19906;DHT22;10115;50.906;4.438;2023-08-06T08:11:40;14.50;99.90
19906;DHT22;10115;50.906;4.438;2023-08-06T08:14:05;14.60;99.90
19906;DHT22;10115;50.906;4.438;2023-08-06T08:16:31;14.60;99.90
19906;DHT22;10115;50.906;4.438;2023-08-06T08:18:57;14.60;99.90
19906;DHT22;10115;50.906;4.438;2023-08-06T08:21:23;14.60;99.90
19906;DHT22;10115;50.906;4.438;2023-08-06T08:23:50;14.60;99.90
19906;DHT22;10115;50.906;4.438;2023-08-06T08:26:15;14.50;99.90
19906;DHT22;10115;50.906;4.438;2023-08-06T08:28:41;14.40;99.90
19906;DHT22;10115;50.906;4.438;2023-08-06T08:31:10;14.20;99.90
19906;DHT22;10115;50.906;4.438;2023-08-06T08:33:37;13.90;99.90
19906;DHT22;10115;50.906;4.438;2023-08-06T08:36:03;13.80;99.90
19906;DHT22;10115;50.906;4.438;2023-08-06T08:38:29;13.80;99.90
19906;DHT22;10115;50.906;4.438;2023-08-06T08:40:55;13.90;99.90
19906;DHT22;10115;50.906;4.438;2023-08-06T08:43:24;14.00;99.90
19906;DHT22;10115;50.906;4.438;2023-08-06T08:45:51;14.00;99.90
19906;DHT22;10115;50.906;4.438;2023-08-06T08:48:21;14.10;99.90
19906;DHT22;10115;50.906;4.438;2023-08-06T08:50:48;14.00;99.90
19906;DHT22;10115;50.906;4.438;2023-08-06T08:53:16;14.10;99.90
19906;DHT22;10115;50.906;4.438;2023-08-06T08:55:43;14.30;99.90
19906;DHT22;10115;50.906;4.438;2023-08-06T08:58:10;14.30;99.90
19906;DHT22;10115;50.906;4.438;2023-08-06T09:00:35;14.50;99.90
19906;DHT22;10115;50.906;4.438;2023-08-06T09:03:02;14.50;99.90
19906;DHT22;10115;50.906;4.438;2023-08-06T09:05:32;14.40;99.90
19906;DHT22;10115;50.906;4.438;2023-08-06T09:08:03;14.40;99.90
19906;DHT22;10115;50.906;4.438;2023-08-06T09:10:30;14.40;99.90
19906;DHT22;10115;50.906;4.438;2023-08-06T09:12:57;14.50;99.90
19906;DHT22;10115;50.906;4.438;2023-08-06T09:15:27;14.50;99.90
19906;DHT22;10115;50.906;4.438;2023-08-06T09:17:56;14.50;99.90
19906;DHT22;10115;50.906;4.438;2023-08-06T09:20:22;14.40;99.90
19906;DHT22;10115;50.906;4.438;2023-08-06T09:22:47;14.20;99.90
19906;DHT22;10115;50.906;4.438;2023-08-06T09:25:24;14.20;99.90
19906;DHT22;10115;50.906;4.438;2023-08-06T09:27:51;14.00;99.90
19906;DHT22;10115;50.906;4.438;2023-08-06T09:30:33;13.90;99.90
19906;DHT22;10115;50.906;4.438;2023-08-06T09:32:59;13.80;99.90
19906;DHT22;10115;50.906;4.438;2023-08-06T09:35:27;13.80;99.90
19906;DHT22;10115;50.906;4.438;2023-08-06T09:37:53;13.70;99.90
19906;DHT22;10115;50.906;4.438;2023-08-06T09:40:28;13.70;99.90
19906;DHT22;10115;50.906;4.438;2023-08-06T09:42:55;13.70;99.90
19906;DHT22;10115;50.906;4.438;2023-08-06T09:45:21;13.70;99.90
19906;DHT22;10115;50.906;4.438;2023-08-06T09:47:50;13.70;99.90
19906;DHT22;10115;50.906;4.438;2023-08-06T09:50:20;13.70;99.90
19906;DHT22;10115;50.906;4.438;2023-08-06T09:52:47;13.60;99.90
19906;DHT22;10115;50.906;4.438;2023-08-06T09:55:14;13.70;99.90
19906;DHT22;10115;50.906;4.438;2023-08-06T09:57:40;13.70;99.90
19906;DHT22;10115;50.906;4.438;2023-08-06T10:00:08;13.60;99.90
19906;DHT22;10115;50.906;4.438;2023-08-06T10:02:39;13.60;99.90
19906;DHT22;10115;50.906;4.438;2023-08-06T10:05:05;13.60;99.90
19906;DHT22;10115;50.906;4.438;2023-08-06T10:07:31;13.60;99.90
19906;DHT22;10115;50.906;4.438;2023-08-06T10:09:58;13.60;99.90
19906;DHT22;10115;50.906;4.438;2023-08-06T10:12:24;13.70;99.90
19906;DHT22;10115;50.906;4.438;2023-08-06T10:14:53;13.70;99.90
19906;DHT22;10115;50.906;4.438;2023-08-06T10:17:23;13.70;99.90
19906;DHT22;10115;50.906;4.438;2023-08-06T10:19:50;13.60;99.90
19906;DHT22;10115;50.906;4.438;2023-08-06T10:22:18;13.60;99.90
19906;DHT22;10115;50.906;4.438;2023-08-06T10:24:57;13.70;99.90
19906;DHT22;10115;50.906;4.438;2023-08-06T10:30:31;13.80;99.90
19906;DHT22;10115;50.906;4.438;2023-08-06T10:32:59;13.90;99.90
19906;DHT22;10115;50.906;4.438;2023-08-06T10:38:10;14.10;99.90
19906;DHT22;10115;50.906;4.438;2023-08-06T10:40:40;14.10;99.90
19906;DHT22;10115;50.906;4.438;2023-08-06T10:43:06;14.20;99.90
19906;DHT22;10115;50.906;4.438;2023-08-06T10:45:35;14.20;99.90
19906;DHT22;10115;50.906;4.438;2023-08-06T10:48:01;14.20;99.90
19906;DHT22;10115;50.906;4.438;2023-08-06T10:50:27;14.20;99.90
19906;DHT22;10115;50.906;4.438;2023-08-06T10:52:53;14.10;99.90
19906;DHT22;10115;50.906;4.438;2023-08-06T10:55:26;14.00;99.90
19906;DHT22;10115;50.906;4.438;2023-08-06T10:57:53;13.90;99.90
19906;DHT22;10115;50.906;4.438;2023-08-06T11:00:23;13.80;99.90
19906;DHT22;10115;50.906;4.438;2023-08-06T11:02:50;13.70;99.90
19906;DHT22;10115;50.906;4.438;2023-08-06T11:05:16;13.70;99.90
19906;DHT22;10115;50.906;4.438;2023-08-06T11:07:43;13.90;99.90
19906;DHT22;10115;50.906;4.438;2023-08-06T11:10:10;13.80;99.90
19906;DHT22;10115;50.906;4.438;2023-08-06T11:12:36;13.80;99.90
19906;DHT22;10115;50.906;4.438;2023-08-06T11:15:03;14.00;99.90
19906;DHT22;10115;50.906;4.438;2023-08-06T11:17:31;13.90;99.90
19906;DHT22;10115;50.906;4.438;2023-08-06T11:20:04;13.80;99.90
19906;DHT22;10115;50.906;4.438;2023-08-06T11:22:30;13.80;99.90
19906;DHT22;10115;50.906;4.438;2023-08-06T11:24:56;13.80;99.90
19906;DHT22;10115;50.906;4.438;2023-08-06T11:27:22;13.80;99.90
19906;DHT22;10115;50.906;4.438;2023-08-06T11:29:48;13.80;99.90
19906;DHT22;10115;50.906;4.438;2023-08-06T11:32:14;13.80;99.90
19906;DHT22;10115;50.906;4.438;2023-08-06T11:34:40;13.70;99.90
19906;DHT22;10115;50.906;4.438;2023-08-06T11:37:08;13.60;99.90
19906;DHT22;10115;50.906;4.438;2023-08-06T11:39:36;13.70;99.90
19906;DHT22;10115;50.906;4.438;2023-08-06T11:42:04;13.60;99.90
19906;DHT22;10115;50.906;4.438;2023-08-06T11:44:31;13.50;99.90
19906;DHT22;10115;50.906;4.438;2023-08-06T11:47:00;13.50;99.90
19906;DHT22;10115;50.906;4.438;2023-08-06T11:49:49;13.40;99.90
19906;DHT22;10115;50.906;4.438;2023-08-06T11:52:20;13.50;99.90
19906;DHT22;10115;50.906;4.438;2023-08-06T11:57:25;13.70;99.90
19906;DHT22;10115;50.906;4.438;2023-08-06T11:59:50;13.80;99.90
19906;DHT22;10115;50.906;4.438;2023-08-06T12:02:16;14.00;99.90
19906;DHT22;10115;50.906;4.438;2023-08-06T12:04:59;14.10;99.90
19906;DHT22;10115;50.906;4.438;2023-08-06T12:07:29;14.20;99.90
19906;DHT22;10115;50.906;4.438;2023-08-06T12:09:56;14.20;99.90
19906;DHT22;10115;50.906;4.438;2023-08-06T12:12:24;14.30;99.90
19906;DHT22;10115;50.906;4.438;2023-08-06T12:14:50;14.40;99.90
19906;DHT22;10115;50.906;4.438;2023-08-06T12:17:16;14.60;99.90
19906;DHT22;10115;50.906;4.438;2023-08-06T12:19:45;14.60;99.90
19906;DHT22;10115;50.906;4.438;2023-08-06T12:22:11;14.50;99.90
19906;DHT22;10115;50.906;4.438;2023-08-06T12:24:42;14.50;99.90
19906;DHT22;10115;50.906;4.438;2023-08-06T12:27:08;14.50;99.90
19906;DHT22;10115;50.906;4.438;2023-08-06T12:29:34;14.60;99.90
19906;DHT22;10115;50.906;4.438;2023-08-06T12:31:59;14.70;99.90
19906;DHT22;10115;50.906;4.438;2023-08-06T12:34:25;14.60;99.90
19906;DHT22;10115;50.906;4.438;2023-08-06T12:36:51;14.70;99.90
19906;DHT22;10115;50.906;4.438;2023-08-06T12:39:16;14.60;99.90
19906;DHT22;10115;50.906;4.438;2023-08-06T12:41:42;14.60;99.90
19906;DHT22;10115;50.906;4.438;2023-08-06T12:44:09;14.60;99.90
19906;DHT22;10115;50.906;4.438;2023-08-06T12:46:35;14.60;99.90
19906;DHT22;10115;50.906;4.438;2023-08-06T12:49:00;14.60;99.90
19906;DHT22;10115;50.906;4.438;2023-08-06T12:51:26;14.40;99.90
19906;DHT22;10115;50.906;4.438;2023-08-06T12:53:52;14.20;99.90
19906;DHT22;10115;50.906;4.438;2023-08-06T12:56:17;14.30;99.90
19906;DHT22;10115;50.906;4.438;2023-08-06T12:58:43;14.30;99.90
19906;DHT22;10115;50.906;4.438;2023-08-06T13:01:09;14.20;99.90
19906;DHT22;10115;50.906;4.438;2023-08-06T13:03:35;14.20;99.90
19906;DHT22;10115;50.906;4.438;2023-08-06T13:06:01;14.10;99.90
19906;DHT22;10115;50.906;4.438;2023-08-06T13:08:26;14.00;99.90
19906;DHT22;10115;50.906;4.438;2023-08-06T13:10:52;13.90;99.90
19906;DHT22;10115;50.906;4.438;2023-08-06T13:13:18;13.80;99.90
19906;DHT22;10115;50.906;4.438;2023-08-06T13:15:44;13.90;99.90
19906;DHT22;10115;50.906;4.438;2023-08-06T13:18:09;13.90;99.90
19906;DHT22;10115;50.906;4.438;2023-08-06T13:20:38;14.00;99.90
19906;DHT22;10115;50.906;4.438;2023-08-06T13:23:05;14.00;99.90
19906;DHT22;10115;50.906;4.438;2023-08-06T13:25:31;14.00;99.90
19906;DHT22;10115;50.906;4.438;2023-08-06T13:28:04;14.10;99.90
19906;DHT22;10115;50.906;4.438;2023-08-06T13:30:30;14.00;99.90
19906;DHT22;10115;50.906;4.438;2023-08-06T13:32:56;14.00;99.90
19906;DHT22;10115;50.906;4.438;2023-08-06T13:35:22;14.10;99.90
19906;DHT22;10115;50.906;4.438;2023-08-06T13:37:48;14.00;99.90
19906;DHT22;10115;50.906;4.438;2023-08-06T13:40:14;14.00;99.90
19906;DHT22;10115;50.906;4.438;2023-08-06T13:42:40;14.00;99.90
19906;DHT22;10115;50.906;4.438;2023-08-06T13:45:06;14.00;99.90
19906;DHT22;10115;50.906;4.438;2023-08-06T13:47:32;13.90;99.90
19906;DHT22;10115;50.906;4.438;2023-08-06T13:49:58;13.80;99.90
19906;DHT22;10115;50.906;4.438;2023-08-06T13:52:26;13.70;99.90
19906;DHT22;10115;50.906;4.438;2023-08-06T13:54:52;13.60;99.90
19906;DHT22;10115;50.906;4.438;2023-08-06T13:57:17;13.60;99.90
19906;DHT22;10115;50.906;4.438;2023-08-06T13:59:43;13.60;99.90
19906;DHT22;10115;50.906;4.438;2023-08-06T14:02:10;13.60;99.90
19906;DHT22;10115;50.906;4.438;2023-08-06T14:04:36;13.60;99.90
19906;DHT22;10115;50.906;4.438;2023-08-06T14:07:03;13.60;99.90
19906;DHT22;10115;50.906;4.438;2023-08-06T14:09:29;13.60;99.90
19906;DHT22;10115;50.906;4.438;2023-08-06T14:11:55;13.60;99.90
19906;DHT22;10115;50.906;4.438;2023-08-06T14:14:21;13.70;99.90
19906;DHT22;10115;50.906;4.438;2023-08-06T14:16:52;13.70;99.90
19906;DHT22;10115;50.906;4.438;2023-08-06T14:19:19;13.70;99.90
19906;DHT22;10115;50.906;4.438;2023-08-06T14:21:45;13.80;99.90
19906;DHT22;10115;50.906;4.438;2023-08-06T14:24:10;13.70;99.90
19906;DHT22;10115;50.906;4.438;2023-08-06T14:26:36;13.80;99.90
19906;DHT22;10115;50.906;4.438;2023-08-06T14:29:02;13.80;99.90
19906;DHT22;10115;50.906;4.438;2023-08-06T14:31:28;13.80;99.90
19906;DHT22;10115;50.906;4.438;2023-08-06T14:33:54;13.80;99.90
19906;DHT22;10115;50.906;4.438;2023-08-06T14:36:20;13.80;99.90
19906;DHT22;10115;50.906;4.438;2023-08-06T14:38:46;14.00;99.90
19906;DHT22;10115;50.906;4.438;2023-08-06T14:41:12;14.00;99.90
19906;DHT22;10115;50.906;4.438;2023-08-06T14:43:38;14.10;99.90
19906;DHT22;10115;50.906;4.438;2023-08-06T14:46:03;14.10;99.90
19906;DHT22;10115;50.906;4.438;2023-08-06T14:48:30;14.10;99.90
19906;DHT22;10115;50.906;4.438;2023-08-06T14:50:56;14.00;99.90
19906;DHT22;10115;50.906;4.438;2023-08-06T14:53:22;14.10;99.90
19906;DHT22;10115;50.906;4.438;2023-08-06T14:55:49;14.10;99.90
19906;DHT22;10115;50.906;4.438;2023-08-06T14:58:15;14.20;99.90
19906;DHT22;10115;50.906;4.438;2023-08-06T15:00:41;14.20;99.90
19906;DHT22;10115;50.906;4.438;2023-08-06T15:03:07;14.00;99.90
19906;DHT22;10115;50.906;4.438;2023-08-06T15:05:33;14.00;99.90
19906;DHT22;10115;50.906;4.438;2023-08-06T15:07:59;14.00;99.90
19906;DHT22;10115;50.906;4.438;2023-08-06T15:10:25;13.90;99.90
19906;DHT22;10115;50.906;4.438;2023-08-06T15:12:50;13.80;99.90
19906;DHT22;10115;50.906;4.438;2023-08-06T15:15:16;13.70;99.90
19906;DHT22;10115;50.906;4.438;2023-08-06T15:17:42;13.70;99.90
19906;DHT22;10115;50.906;4.438;2023-08-06T15:20:08;13.60;99.90
19906;DHT22;10115;50.906;4.438;2023-08-06T15:22:34;13.60;99.90
19906;DHT22;10115;50.906;4.438;2023-08-06T15:25:00;13.60;99.90
19906;DHT22;10115;50.906;4.438;2023-08-06T15:27:27;13.70;99.90
19906;DHT22;10115;50.906;4.438;2023-08-06T15:29:52;13.70;99.90
19906;DHT22;10115;50.906;4.438;2023-08-06T15:32:18;13.70;99.90
19906;DHT22;10115;50.906;4.438;2023-08-06T15:34:44;13.70;99.90
19906;DHT22;10115;50.906;4.438;2023-08-06T15:37:10;13.80;99.90
19906;DHT22;10115;50.906;4.438;2023-08-06T15:39:36;13.80;99.90
19906;DHT22;10115;50.906;4.438;2023-08-06T15:42:02;13.90;99.90